West Milford, New Jersey
Current Conditions -  °F | °C
As of 12:53 PM on Saturday 25 Oct 2014 (Local Time) from KFWN Reporting Station
Few Clouds Few Clouds  
Wind Chill: 66°   Ceiling: Unl
Heat Index: 66°   Visibility: 10mi
Dew Point: 42°   Wind: 8mph
Humidity: 42%   Direction: 290°WNW
Pressure: 29.76"   Gusts: NA
Location:  41.13°N, 74.37°W
Report Text: KFWN 251653Z AUTO 29007KT 10SM FEW050 19/06 A2976 RMK AO2 SLP075 T01890056
Loading
Personal Weather Stations






























Interactive Weather Map
Tropical Storm Tracking
New forecast layout! Learn more

10-Day Weather Forecast

Advertisements
Track Severe Weather on mobile